Bellefontaine, Mississippi
Current Conditions -  °F | °C
As of 4:35 AM on Saturday 22 Nov 2014 (Local Time) from KSTF Reporting Station
Clear Clear  
Wind Chill: 48°   Ceiling: Unl
Heat Index: 48°   Visibility: NA
Dew Point: 43°   Wind: 3mph
Humidity: 82%   Direction: 140°SE
Pressure: 30.31"   Gusts: NA
Location:  33.65°N, 89.31°W
Report Text: KSTF 221035Z AUTO 14003KT CLR 09/06 A3031 RMK AO2 PWINO
Loading
Personal Weather Stations






























Interactive Weather Map New forecast layout! Learn more

10-Day Weather Forecast

Advertisements
Track Severe Weather on mobile